sensor_id;sensor_type;location;lat;lon;timestamp;pressure;altitude;pressure_sealevel;temperature;humidity
4814;BME280;15375;48.540;9.268;2023-02-11T00:00:03;99366.06;;;-2.66;99.08
4814;BME280;15375;48.540;9.268;2023-02-11T00:02:31;99366.16;;;-2.76;98.29
4814;BME280;15375;48.540;9.268;2023-02-11T00:04:57;99369.44;;;-2.84;97.89
4814;BME280;15375;48.540;9.268;2023-02-11T00:07:22;99356.25;;;-3.04;97.07
4814;BME280;15375;48.540;9.268;2023-02-11T00:09:48;99343.06;;;-3.25;98.80
4814;BME280;15375;48.540;9.268;2023-02-11T00:12:13;99378.31;;;-3.22;99.36
4814;BME280;15375;48.540;9.268;2023-02-11T00:14:40;99390.81;;;-3.18;100.00
4814;BME280;15375;48.540;9.268;2023-02-11T00:17:05;99370.88;;;-3.31;100.00
4814;BME280;15375;48.540;9.268;2023-02-11T00:19:30;99370.34;;;-3.28;100.00
4814;BME280;15375;48.540;9.268;2023-02-11T00:21:56;99378.34;;;-3.28;100.00
4814;BME280;15375;48.540;9.268;2023-02-11T00:24:21;99367.22;;;-3.45;100.00
4814;BME280;15375;48.540;9.268;2023-02-11T00:26:46;99335.91;;;-3.68;100.00
4814;BME280;15375;48.540;9.268;2023-02-11T00:29:12;99388.53;;;-3.40;100.00
4814;BME280;15375;48.540;9.268;2023-02-11T00:31:37;99376.28;;;-3.41;100.00
4814;BME280;15375;48.540;9.268;2023-02-11T00:34:02;99364.38;;;-3.58;100.00
4814;BME280;15375;48.540;9.268;2023-02-11T00:36:28;99376.88;;;-3.54;100.00
4814;BME280;15375;48.540;9.268;2023-02-11T00:38:55;99379.00;;;-3.51;100.00
4814;BME280;15375;48.540;9.268;2023-02-11T00:41:22;99381.91;;;-3.47;100.00
4814;BME280;15375;48.540;9.268;2023-02-11T00:43:48;99376.34;;;-3.51;100.00
4814;BME280;15375;48.540;9.268;2023-02-11T00:46:14;99375.00;;;-3.48;100.00
4814;BME280;15375;48.540;9.268;2023-02-11T00:48:39;99358.50;;;-3.55;100.00
4814;BME280;15375;48.540;9.268;2023-02-11T00:51:05;99369.34;;;-3.42;100.00
4814;BME280;15375;48.540;9.268;2023-02-11T00:53:31;99363.19;;;-3.42;100.00
4814;BME280;15375;48.540;9.268;2023-02-11T00:55:57;99349.19;;;-3.58;100.00
4814;BME280;15375;48.540;9.268;2023-02-11T00:58:22;99343.31;;;-3.60;100.00
4814;BME280;15375;48.540;9.268;2023-02-11T01:00:48;99342.75;;;-3.57;100.00
4814;BME280;15375;48.540;9.268;2023-02-11T01:03:13;99363.53;;;-3.49;100.00
4814;BME280;15375;48.540;9.268;2023-02-11T01:05:39;99356.56;;;-3.50;100.00
4814;BME280;15375;48.540;9.268;2023-02-11T01:08:04;99357.16;;;-3.53;100.00
4814;BME280;15375;48.540;9.268;2023-02-11T01:10:30;99353.41;;;-3.52;100.00
4814;BME280;15375;48.540;9.268;2023-02-11T01:12:56;99340.09;;;-3.57;100.00
4814;BME280;15375;48.540;9.268;2023-02-11T01:15:21;99325.22;;;-3.63;100.00
4814;BME280;15375;48.540;9.268;2023-02-11T01:17:47;99344.84;;;-3.49;100.00
4814;BME280;15375;48.540;9.268;2023-02-11T01:20:19;99344.38;;;-3.56;100.00
4814;BME280;15375;48.540;9.268;2023-02-11T01:22:44;99339.06;;;-3.61;100.00
4814;BME280;15375;48.540;9.268;2023-02-11T01:25:10;99321.19;;;-3.60;100.00
4814;BME280;15375;48.540;9.268;2023-02-11T01:27:36;99328.34;;;-3.51;100.00
4814;BME280;15375;48.540;9.268;2023-02-11T01:30:03;99329.34;;;-3.47;100.00
4814;BME280;15375;48.540;9.268;2023-02-11T01:32:29;99324.06;;;-3.52;100.00
4814;BME280;15375;48.540;9.268;2023-02-11T01:34:54;99330.44;;;-3.48;100.00
4814;BME280;15375;48.540;9.268;2023-02-11T01:37:20;99325.09;;;-3.43;100.00
4814;BME280;15375;48.540;9.268;2023-02-11T01:39:45;99295.84;;;-3.58;100.00
4814;BME280;15375;48.540;9.268;2023-02-11T01:42:15;99306.44;;;-3.48;100.00
4814;BME280;15375;48.540;9.268;2023-02-11T01:44:41;99294.19;;;-3.54;100.00
4814;BME280;15375;48.540;9.268;2023-02-11T01:47:07;99290.19;;;-3.51;100.00
4814;BME280;15375;48.540;9.268;2023-02-11T01:49:35;99298.94;;;-3.46;100.00
4814;BME280;15375;48.540;9.268;2023-02-11T01:52:07;99295.78;;;-3.48;100.00
4814;BME280;15375;48.540;9.268;2023-02-11T01:54:39;99278.81;;;-3.67;100.00
4814;BME280;15375;48.540;9.268;2023-02-11T01:57:28;99292.19;;;-3.72;100.00
4814;BME280;15375;48.540;9.268;2023-02-11T02:02:31;99267.25;;;-3.91;100.00
4814;BME280;15375;48.540;9.268;2023-02-11T02:05:06;99265.69;;;-3.97;100.00
4814;BME280;15375;48.540;9.268;2023-02-11T02:08:12;99256.94;;;-4.08;100.00
4814;BME280;15375;48.540;9.268;2023-02-11T02:10:41;99283.72;;;-3.79;100.00
4814;BME280;15375;48.540;9.268;2023-02-11T02:13:07;99279.91;;;-3.68;100.00
4814;BME280;15375;48.540;9.268;2023-02-11T02:15:34;99287.31;;;-3.60;100.00
4814;BME280;15375;48.540;9.268;2023-02-11T02:18:47;99282.72;;;-3.54;100.00
4814;BME280;15375;48.540;9.268;2023-02-11T02:30:31;99274.69;;;-3.49;100.00
4814;BME280;15375;48.540;9.268;2023-02-11T02:32:44;99264.38;;;-3.61;100.00
4814;BME280;15375;48.540;9.268;2023-02-11T02:35:31;99278.19;;;-3.54;100.00
4814;BME280;15375;48.540;9.268;2023-02-11T02:38:15;99270.75;;;-3.57;100.00
4814;BME280;15375;48.540;9.268;2023-02-11T02:40:53;99269.97;;;-3.62;100.00
4814;BME280;15375;48.540;9.268;2023-02-11T02:43:22;99262.34;;;-3.74;100.00
4814;BME280;15375;48.540;9.268;2023-02-11T02:45:50;99266.84;;;-3.69;100.00
4814;BME280;15375;48.540;9.268;2023-02-11T02:48:26;99245.44;;;-3.93;100.00
4814;BME280;15375;48.540;9.268;2023-02-11T03:02:17;99253.91;;;-3.86;100.00
4814;BME280;15375;48.540;9.268;2023-02-11T03:05:04;99243.25;;;-3.86;100.00
4814;BME280;15375;48.540;9.268;2023-02-11T03:10:32;99250.75;;;-3.59;100.00
4814;BME280;15375;48.540;9.268;2023-02-11T03:12:59;99254.13;;;-3.44;100.00
4814;BME280;15375;48.540;9.268;2023-02-11T03:15:29;99241.03;;;-3.40;100.00
4814;BME280;15375;48.540;9.268;2023-02-11T03:17:58;99251.69;;;-3.40;100.00
4814;BME280;15375;48.540;9.268;2023-02-11T03:20:26;99252.44;;;-3.35;100.00
4814;BME280;15375;48.540;9.268;2023-02-11T03:23:15;99240.47;;;-3.42;100.00
4814;BME280;15375;48.540;9.268;2023-02-11T03:25:49;99230.94;;;-3.48;100.00
4814;BME280;15375;48.540;9.268;2023-02-11T03:28:29;99208.34;;;-3.56;100.00
4814;BME280;15375;48.540;9.268;2023-02-11T03:33:41;99232.94;;;-3.64;100.00
4814;BME280;15375;48.540;9.268;2023-02-11T03:36:17;99232.91;;;-3.59;100.00
4814;BME280;15375;48.540;9.268;2023-02-11T03:38:47;99218.53;;;-3.63;100.00
4814;BME280;15375;48.540;9.268;2023-02-11T03:41:16;99218.53;;;-3.63;100.00
4814;BME280;15375;48.540;9.268;2023-02-11T03:43:47;99236.50;;;-3.45;100.00
4814;BME280;15375;48.540;9.268;2023-02-11T03:46:18;99247.69;;;-3.38;100.00
4814;BME280;15375;48.540;9.268;2023-02-11T03:48:48;99223.00;;;-3.53;100.00
4814;BME280;15375;48.540;9.268;2023-02-11T03:51:16;99234.16;;;-3.51;100.00
4814;BME280;15375;48.540;9.268;2023-02-11T03:53:43;99242.09;;;-3.41;100.00
4814;BME280;15375;48.540;9.268;2023-02-11T03:56:13;99248.22;;;-3.41;100.00
4814;BME280;15375;48.540;9.268;2023-02-11T03:58:39;99238.66;;;-3.47;100.00
4814;BME280;15375;48.540;9.268;2023-02-11T04:01:05;99242.09;;;-3.41;100.00
4814;BME280;15375;48.540;9.268;2023-02-11T04:03:34;99233.56;;;-3.43;100.00
4814;BME280;15375;48.540;9.268;2023-02-11T04:05:59;99239.03;;;-3.30;100.00
4814;BME280;15375;48.540;9.268;2023-02-11T04:08:24;99248.59;;;-3.24;100.00
4814;BME280;15375;48.540;9.268;2023-02-11T04:10:50;99242.25;;;-3.28;100.00
4814;BME280;15375;48.540;9.268;2023-02-11T04:13:15;99248.41;;;-3.32;100.00
4814;BME280;15375;48.540;9.268;2023-02-11T04:15:40;99254.97;;;-3.19;100.00
4814;BME280;15375;48.540;9.268;2023-02-11T04:18:06;99254.50;;;-3.27;100.00
4814;BME280;15375;48.540;9.268;2023-02-11T04:20:31;99264.53;;;-3.13;100.00
4814;BME280;15375;48.540;9.268;2023-02-11T04:22:56;99261.94;;;-3.24;100.00
4814;BME280;15375;48.540;9.268;2023-02-11T04:25:22;99252.03;;;-3.52;100.00
4814;BME280;15375;48.540;9.268;2023-02-11T04:27:48;99244.56;;;-3.50;100.00
4814;BME280;15375;48.540;9.268;2023-02-11T04:30:14;99239.94;;;-3.39;100.00
4814;BME280;15375;48.540;9.268;2023-02-11T04:32:39;99239.34;;;-3.31;100.00
4814;BME280;15375;48.540;9.268;2023-02-11T04:35:05;99261.53;;;-3.07;100.00
4814;BME280;15375;48.540;9.268;2023-02-11T04:37:31;99263.25;;;-2.92;100.00
4814;BME280;15375;48.540;9.268;2023-02-11T04:39:56;99252.53;;;-2.87;100.00
4814;BME280;15375;48.540;9.268;2023-02-11T04:42:22;99262.75;;;-2.71;100.00
4814;BME280;15375;48.540;9.268;2023-02-11T04:44:48;99259.22;;;-2.66;100.00
4814;BME280;15375;48.540;9.268;2023-02-11T04:47:13;99256.91;;;-2.73;100.00
4814;BME280;15375;48.540;9.268;2023-02-11T04:49:40;99257.38;;;-2.66;100.00
4814;BME280;15375;48.540;9.268;2023-02-11T04:52:06;99266.75;;;-2.68;100.00
4814;BME280;15375;48.540;9.268;2023-02-11T04:54:32;99262.41;;;-2.64;100.00
4814;BME280;15375;48.540;9.268;2023-02-11T04:56:57;99258.78;;;-2.73;100.00
4814;BME280;15375;48.540;9.268;2023-02-11T04:59:22;99251.38;;;-2.81;100.00
4814;BME280;15375;48.540;9.268;2023-02-11T05:01:48;99242.31;;;-2.80;100.00
4814;BME280;15375;48.540;9.268;2023-02-11T05:04:14;99243.00;;;-2.70;100.00
4814;BME280;15375;48.540;9.268;2023-02-11T05:06:40;99237.59;;;-2.65;100.00
4814;BME280;15375;48.540;9.268;2023-02-11T05:09:05;99240.28;;;-2.65;100.00
4814;BME280;15375;48.540;9.268;2023-02-11T05:11:30;99234.13;;;-2.65;100.00
4814;BME280;15375;48.540;9.268;2023-02-11T05:13:56;99208.03;;;-2.73;100.00
4814;BME280;15375;48.540;9.268;2023-02-11T05:16:22;99212.81;;;-2.70;100.00
4814;BME280;15375;48.540;9.268;2023-02-11T05:18:47;99222.06;;;-2.63;100.00
4814;BME280;15375;48.540;9.268;2023-02-11T05:21:16;99211.59;;;-2.59;100.00
4814;BME280;15375;48.540;9.268;2023-02-11T05:23:42;99215.00;;;-2.53;100.00
4814;BME280;15375;48.540;9.268;2023-02-11T05:26:08;99219.22;;;-2.47;100.00
4814;BME280;15375;48.540;9.268;2023-02-11T05:28:33;99217.41;;;-2.52;100.00
4814;BME280;15375;48.540;9.268;2023-02-11T05:31:00;99230.78;;;-2.33;100.00
4814;BME280;15375;48.540;9.268;2023-02-11T05:33:25;99229.28;;;-2.21;100.00
4814;BME280;15375;48.540;9.268;2023-02-11T05:35:51;99211.06;;;-2.19;100.00
4814;BME280;15375;48.540;9.268;2023-02-11T05:38:16;99200.59;;;-2.15;100.00
4814;BME280;15375;48.540;9.268;2023-02-11T05:40:42;99182.78;;;-2.20;100.00
4814;BME280;15375;48.540;9.268;2023-02-11T05:43:07;99170.03;;;-2.28;100.00
4814;BME280;15375;48.540;9.268;2023-02-11T05:45:33;99155.09;;;-2.29;100.00
4814;BME280;15375;48.540;9.268;2023-02-11T05:47:58;99170.47;;;-2.21;100.00
4814;BME280;15375;48.540;9.268;2023-02-11T05:50:24;99162.53;;;-2.26;100.00
4814;BME280;15375;48.540;9.268;2023-02-11T05:52:50;99175.69;;;-2.11;100.00
4814;BME280;15375;48.540;9.268;2023-02-11T05:55:15;99161.38;;;-2.20;100.00
4814;BME280;15375;48.540;9.268;2023-02-11T05:57:41;99174.19;;;-2.17;100.00
4814;BME280;15375;48.540;9.268;2023-02-11T06:00:07;99171.34;;;-2.07;100.00
4814;BME280;15375;48.540;9.268;2023-02-11T06:02:33;99167.59;;;-2.06;100.00
4814;BME280;15375;48.540;9.268;2023-02-11T06:04:58;99164.03;;;-2.01;100.00
4814;BME280;15375;48.540;9.268;2023-02-11T06:07:24;99169.09;;;-2.00;100.00
4814;BME280;15375;48.540;9.268;2023-02-11T06:09:49;99182.91;;;-1.92;100.00
4814;BME280;15375;48.540;9.268;2023-02-11T06:12:14;99177.78;;;-1.89;100.00
4814;BME280;15375;48.540;9.268;2023-02-11T06:14:40;99155.16;;;-1.97;100.00
4814;BME280;15375;48.540;9.268;2023-02-11T06:17:05;99155.88;;;-2.10;100.00
4814;BME280;15375;48.540;9.268;2023-02-11T06:19:31;99164.75;;;-1.96;100.00
4814;BME280;15375;48.540;9.268;2023-02-11T06:21:56;99166.44;;;-2.00;100.00
4814;BME280;15375;48.540;9.268;2023-02-11T06:24:22;99162.72;;;-2.04;100.00
4814;BME280;15375;48.540;9.268;2023-02-11T06:26:48;99176.56;;;-1.97;100.00
4814;BME280;15375;48.540;9.268;2023-02-11T06:29:13;99172.06;;;-2.01;100.00
4814;BME280;15375;48.540;9.268;2023-02-11T06:31:38;99182.97;;;-1.98;100.00
4814;BME280;15375;48.540;9.268;2023-02-11T06:34:05;99191.50;;;-1.96;100.00
4814;BME280;15375;48.540;9.268;2023-02-11T06:36:30;99195.28;;;-1.97;100.00
4814;BME280;15375;48.540;9.268;2023-02-11T06:38:56;99169.91;;;-2.18;100.00
4814;BME280;15375;48.540;9.268;2023-02-11T06:41:21;99203.88;;;-2.00;100.00
4814;BME280;15375;48.540;9.268;2023-02-11T06:43:47;99192.53;;;-2.10;100.00
4814;BME280;15375;48.540;9.268;2023-02-11T06:46:13;99215.47;;;-1.90;100.00
4814;BME280;15375;48.540;9.268;2023-02-11T06:48:38;99199.94;;;-1.88;100.00
4814;BME280;15375;48.540;9.268;2023-02-11T06:51:06;99213.75;;;-1.81;100.00
4814;BME280;15375;48.540;9.268;2023-02-11T06:53:37;99207.22;;;-1.75;100.00
4814;BME280;15375;48.540;9.268;2023-02-11T06:56:04;99212.16;;;-1.64;100.00
4814;BME280;15375;48.540;9.268;2023-02-11T06:58:31;99209.66;;;-1.60;100.00
4814;BME280;15375;48.540;9.268;2023-02-11T07:00:56;99200.72;;;-1.69;100.00
4814;BME280;15375;48.540;9.268;2023-02-11T07:03:22;99194.06;;;-1.72;100.00
4814;BME280;15375;48.540;9.268;2023-02-11T07:05:47;99206.28;;;-1.66;100.00
4814;BME280;15375;48.540;9.268;2023-02-11T07:08:13;99204.03;;;-1.59;100.00
4814;BME280;15375;48.540;9.268;2023-02-11T07:10:38;99218.28;;;-1.63;100.00
4814;BME280;15375;48.540;9.268;2023-02-11T07:13:04;99223.78;;;-1.73;100.00
4814;BME280;15375;48.540;9.268;2023-02-11T07:15:29;99234.31;;;-1.63;100.00
4814;BME280;15375;48.540;9.268;2023-02-11T07:17:54;99233.03;;;-1.66;100.00
4814;BME280;15375;48.540;9.268;2023-02-11T07:20:20;99215.91;;;-1.65;100.00
4814;BME280;15375;48.540;9.268;2023-02-11T07:22:45;99231.94;;;-1.46;100.00
4814;BME280;15375;48.540;9.268;2023-02-11T07:25:10;99231.31;;;-1.43;100.00
4814;BME280;15375;48.540;9.268;2023-02-11T07:27:36;99225.38;;;-1.40;100.00
4814;BME280;15375;48.540;9.268;2023-02-11T07:30:02;99227.72;;;-1.20;100.00
4814;BME280;15375;48.540;9.268;2023-02-11T07:32:27;99211.28;;;-1.13;100.00
4814;BME280;15375;48.540;9.268;2023-02-11T07:34:53;99211.13;;;-1.03;100.00
4814;BME280;15375;48.540;9.268;2023-02-11T07:37:18;99213.69;;;-0.98;100.00
4814;BME280;15375;48.540;9.268;2023-02-11T07:39:44;99206.16;;;-0.96;100.00
4814;BME280;15375;48.540;9.268;2023-02-11T07:42:09;99222.00;;;-1.00;100.00
4814;BME280;15375;48.540;9.268;2023-02-11T07:44:34;99209.28;;;-1.08;100.00
4814;BME280;15375;48.540;9.268;2023-02-11T07:47:01;99208.72;;;-1.05;100.00
4814;BME280;15375;48.540;9.268;2023-02-11T07:49:26;99197.63;;;-0.98;100.00
4814;BME280;15375;48.540;9.268;2023-02-11T07:51:52;99192.84;;;-0.88;100.00
4814;BME280;15375;48.540;9.268;2023-02-11T07:54:17;99193.28;;;-0.81;100.00
4814;BME280;15375;48.540;9.268;2023-02-11T07:56:43;99189.97;;;-0.78;100.00
4814;BME280;15375;48.540;9.268;2023-02-11T07:59:09;99211.53;;;-0.55;100.00
4814;BME280;15375;48.540;9.268;2023-02-11T08:01:35;99210.59;;;-0.37;100.00
4814;BME280;15375;48.540;9.268;2023-02-11T08:04:01;99209.66;;;-0.19;100.00
4814;BME280;15375;48.540;9.268;2023-02-11T08:06:29;99192.97;;;-0.16;97.54
4814;BME280;15375;48.540;9.268;2023-02-11T08:08:55;99211.53;;;0.30;96.83
4814;BME280;15375;48.540;9.268;2023-02-11T08:11:26;99197.22;;;0.96;93.00
4814;BME280;15375;48.540;9.268;2023-02-11T08:13:54;99186.63;;;0.91;88.49
4814;BME280;15375;48.540;9.268;2023-02-11T08:16:22;99202.63;;;0.74;89.70
4814;BME280;15375;48.540;9.268;2023-02-11T08:18:49;99191.75;;;0.48;93.63
4814;BME280;15375;48.540;9.268;2023-02-11T08:21:15;99198.47;;;1.20;92.10
4814;BME280;15375;48.540;9.268;2023-02-11T08:23:42;99197.78;;;1.63;87.14
4814;BME280;15375;48.540;9.268;2023-02-11T08:26:11;99193.41;;;2.10;84.37
4814;BME280;15375;48.540;9.268;2023-02-11T08:28:38;99190.66;;;2.70;79.14
4814;BME280;15375;48.540;9.268;2023-02-11T08:31:05;99192.66;;;2.98;78.74
4814;BME280;15375;48.540;9.268;2023-02-11T08:33:32;99180.25;;;3.06;75.65
4814;BME280;15375;48.540;9.268;2023-02-11T08:35:57;99190.41;;;2.54;78.71
4814;BME280;15375;48.540;9.268;2023-02-11T08:38:22;99201.13;;;1.77;82.09
4814;BME280;15375;48.540;9.268;2023-02-11T08:40:48;99197.84;;;1.32;84.61
4814;BME280;15375;48.540;9.268;2023-02-11T08:43:13;99200.88;;;1.39;84.07
4814;BME280;15375;48.540;9.268;2023-02-11T08:45:39;99209.06;;;1.82;84.35
4814;BME280;15375;48.540;9.268;2023-02-11T08:48:04;99203.06;;;1.93;82.77
4814;BME280;15375;48.540;9.268;2023-02-11T08:50:29;99213.38;;;2.09;82.08
4814;BME280;15375;48.540;9.268;2023-02-11T08:52:56;99198.16;;;2.30;81.92
4814;BME280;15375;48.540;9.268;2023-02-11T08:55:21;99193.41;;;2.10;79.80
4814;BME280;15375;48.540;9.268;2023-02-11T08:57:47;99210.34;;;2.27;80.79
4814;BME280;15375;48.540;9.268;2023-02-11T09:00:12;99200.22;;;1.99;80.10
4814;BME280;15375;48.540;9.268;2023-02-11T09:02:38;99212.88;;;2.07;81.51
4814;BME280;15375;48.540;9.268;2023-02-11T09:05:04;99196.91;;;2.19;81.02
4814;BME280;15375;48.540;9.268;2023-02-11T09:07:29;99178.69;;;2.07;80.35
4814;BME280;15375;48.540;9.268;2023-02-11T09:09:54;99196.38;;;2.59;80.91
4814;BME280;15375;48.540;9.268;2023-02-11T09:12:20;99188.06;;;2.99;77.43
4814;BME280;15375;48.540;9.268;2023-02-11T09:14:45;99175.19;;;3.04;74.11
4814;BME280;15375;48.540;9.268;2023-02-11T09:17:10;99160.38;;;3.19;72.65
4814;BME280;15375;48.540;9.268;2023-02-11T09:19:36;99165.44;;;3.20;73.96
4814;BME280;15375;48.540;9.268;2023-02-11T09:22:01;99152.53;;;3.64;71.47
4814;BME280;15375;48.540;9.268;2023-02-11T09:24:27;99162.69;;;4.41;69.32
4814;BME280;15375;48.540;9.268;2023-02-11T09:26:52;99154.91;;;4.72;67.89
4814;BME280;15375;48.540;9.268;2023-02-11T09:29:17;99161.97;;;5.09;65.33
4814;BME280;15375;48.540;9.268;2023-02-11T09:31:43;99149.22;;;5.46;65.00
4814;BME280;15375;48.540;9.268;2023-02-11T09:34:09;99163.56;;;5.23;64.10
4814;BME280;15375;48.540;9.268;2023-02-11T09:36:37;99167.34;;;5.94;64.71
4814;BME280;15375;48.540;9.268;2023-02-11T09:39:11;99164.19;;;6.32;61.47
4814;BME280;15375;48.540;9.268;2023-02-11T09:44:35;99163.31;;;6.56;62.00
4814;BME280;15375;48.540;9.268;2023-02-11T09:49:43;99152.31;;;7.58;59.28
4814;BME280;15375;48.540;9.268;2023-02-11T09:52:17;99153.94;;;7.78;58.31
4814;BME280;15375;48.540;9.268;2023-02-11T09:54:54;99145.09;;;8.35;56.95
4814;BME280;15375;48.540;9.268;2023-02-11T09:57:20;99127.81;;;8.47;55.59
4814;BME280;15375;48.540;9.268;2023-02-11T09:59:46;99134.56;;;8.53;56.05
4814;BME280;15375;48.540;9.268;2023-02-11T10:02:26;99138.72;;;8.88;55.12
4814;BME280;15375;48.540;9.268;2023-02-11T10:23:39;99155.19;;;8.99;54.64
4814;BME280;15375;48.540;9.268;2023-02-11T10:26:12;99149.91;;;8.64;54.70
4814;BME280;15375;48.540;9.268;2023-02-11T10:28:39;99136.97;;;8.58;55.70
4814;BME280;15375;48.540;9.268;2023-02-11T10:31:09;99122.78;;;8.49;55.86
4814;BME280;15375;48.540;9.268;2023-02-11T10:33:57;99139.69;;;8.58;56.33
4814;BME280;15375;48.540;9.268;2023-02-11T10:36:29;99140.50;;;8.58;56.22
4814;BME280;15375;48.540;9.268;2023-02-11T10:38:57;99139.69;;;8.39;56.72
4814;BME280;15375;48.540;9.268;2023-02-11T10:41:33;99148.13;;;7.95;58.43
4814;BME280;15375;48.540;9.268;2023-02-11T10:44:05;99145.25;;;7.38;59.58
4814;BME280;15375;48.540;9.268;2023-02-11T10:46:33;99124.59;;;7.18;60.07
4814;BME280;15375;48.540;9.268;2023-02-11T10:49:00;99142.34;;;7.46;60.05
4814;BME280;15375;48.540;9.268;2023-02-11T10:51:29;99138.78;;;7.42;60.18
4814;BME280;15375;48.540;9.268;2023-02-11T10:56:31;99132.94;;;7.25;61.76
4814;BME280;15375;48.540;9.268;2023-02-11T11:01:44;99134.16;;;7.97;60.07
4814;BME280;15375;48.540;9.268;2023-02-11T11:04:42;99118.19;;;8.94;56.71
4814;BME280;15375;48.540;9.268;2023-02-11T11:07:19;99120.56;;;9.45;54.99
4814;BME280;15375;48.540;9.268;2023-02-11T11:12:25;99110.56;;;9.79;54.88
4814;BME280;15375;48.540;9.268;2023-02-11T11:14:57;99113.97;;;10.02;53.61
4814;BME280;15375;48.540;9.268;2023-02-11T11:17:22;99100.25;;;10.24;52.50
4814;BME280;15375;48.540;9.268;2023-02-11T11:19:48;99106.81;;;10.53;52.17
4814;BME280;15375;48.540;9.268;2023-02-11T11:22:22;99114.59;;;10.18;52.84
4814;BME280;15375;48.540;9.268;2023-02-11T11:24:48;99100.25;;;10.61;51.90
4814;BME280;15375;48.540;9.268;2023-02-11T11:27:22;99081.59;;;9.97;52.41
4814;BME280;15375;48.540;9.268;2023-02-11T11:29:52;99097.56;;;10.65;51.30
4814;BME280;15375;48.540;9.268;2023-02-11T11:32:30;99105.13;;;10.78;50.47
4814;BME280;15375;48.540;9.268;2023-02-11T11:35:03;99091.59;;;10.52;50.71
4814;BME280;15375;48.540;9.268;2023-02-11T11:37:35;99087.09;;;10.70;50.59
4814;BME280;15375;48.540;9.268;2023-02-11T11:40:20;99099.16;;;11.10;49.72
4814;BME280;15375;48.540;9.268;2023-02-11T11:43:14;99095.63;;;11.09;49.98
4814;BME280;15375;48.540;9.268;2023-02-11T11:45:58;99088.03;;;10.88;49.28
4814;BME280;15375;48.540;9.268;2023-02-11T11:48:30;99092.22;;;10.75;50.98
4814;BME280;15375;48.540;9.268;2023-02-11T11:51:04;99094.16;;;11.19;49.83
4814;BME280;15375;48.540;9.268;2023-02-11T11:53:38;99092.78;;;11.42;49.21
4814;BME280;15375;48.540;9.268;2023-02-11T11:56:10;99100.72;;;11.65;49.17
4814;BME280;15375;48.540;9.268;2023-02-11T11:58:36;99090.56;;;11.62;48.63
4814;BME280;15375;48.540;9.268;2023-02-11T12:01:17;99085.72;;;11.41;48.33
4814;BME280;15375;48.540;9.268;2023-02-11T12:04:18;99089.13;;;11.24;49.95
4814;BME280;15375;48.540;9.268;2023-02-11T12:09:37;99069.06;;;11.57;49.65
4814;BME280;15375;48.540;9.268;2023-02-11T12:12:34;99079.88;;;11.43;49.79
4814;BME280;15375;48.540;9.268;2023-02-11T12:15:25;99057.22;;;10.84;50.20
4814;BME280;15375;48.540;9.268;2023-02-11T12:34:20;99083.72;;;10.47;50.42
4814;BME280;15375;48.540;9.268;2023-02-11T12:45:26;99076.19;;;10.70;51.08
4814;BME280;15375;48.540;9.268;2023-02-11T12:48:14;99073.94;;;10.83;51.57
4814;BME280;15375;48.540;9.268;2023-02-11T12:56:14;99059.34;;;11.09;50.86
4814;BME280;15375;48.540;9.268;2023-02-11T12:58:43;99059.09;;;11.28;51.33
4814;BME280;15375;48.540;9.268;2023-02-11T13:01:26;99046.22;;;11.28;49.71
4814;BME280;15375;48.540;9.268;2023-02-11T13:04:00;99059.25;;;10.95;51.70
4814;BME280;15375;48.540;9.268;2023-02-11T13:06:58;99050.72;;;11.00;51.54
4814;BME280;15375;48.540;9.268;2023-02-11T13:09:42;99056.13;;;10.52;53.71
4814;BME280;15375;48.540;9.268;2023-02-11T13:12:11;99055.78;;;10.57;52.17
4814;BME280;15375;48.540;9.268;2023-02-11T13:14:59;99046.47;;;10.62;52.10
4814;BME280;15375;48.540;9.268;2023-02-11T13:17:32;99049.72;;;10.38;53.46
4814;BME280;15375;48.540;9.268;2023-02-11T13:20:13;99051.44;;;10.53;53.26
4814;BME280;15375;48.540;9.268;2023-02-11T13:22:49;99040.88;;;10.48;52.04
4814;BME280;15375;48.540;9.268;2023-02-11T13:25:24;99048.53;;;10.75;52.48
4814;BME280;15375;48.540;9.268;2023-02-11T13:30:43;99047.59;;;10.57;51.88
4814;BME280;15375;48.540;9.268;2023-02-11T13:33:18;99042.91;;;10.58;51.73
4814;BME280;15375;48.540;9.268;2023-02-11T13:35:48;99029.94;;;10.11;52.33
4814;BME280;15375;48.540;9.268;2023-02-11T13:38:33;99028.75;;;10.08;52.72
4814;BME280;15375;48.540;9.268;2023-02-11T13:41:12;99040.06;;;10.10;52.79
4814;BME280;15375;48.540;9.268;2023-02-11T13:43:39;99022.03;;;9.99;52.27
4814;BME280;15375;48.540;9.268;2023-02-11T13:46:07;99042.88;;;10.14;53.55
4814;BME280;15375;48.540;9.268;2023-02-11T13:48:43;99019.94;;;10.18;52.46
4814;BME280;15375;48.540;9.268;2023-02-11T13:51:12;99034.38;;;10.22;52.29
4814;BME280;15375;48.540;9.268;2023-02-11T13:53:54;99024.19;;;10.16;52.54
4814;BME280;15375;48.540;9.268;2023-02-11T13:56:37;99045.06;;;10.38;52.42
4814;BME280;15375;48.540;9.268;2023-02-11T14:11:05;99042.72;;;10.80;52.21
4814;BME280;15375;48.540;9.268;2023-02-11T14:19:45;99023.63;;;10.37;52.05
4814;BME280;15375;48.540;9.268;2023-02-11T14:22:19;99023.25;;;10.05;52.35
4814;BME280;15375;48.540;9.268;2023-02-11T14:24:51;99029.13;;;9.74;52.97
4814;BME280;15375;48.540;9.268;2023-02-11T14:30:25;99045.00;;;9.68;53.90
4814;BME280;15375;48.540;9.268;2023-02-11T14:41:23;99022.34;;;9.34;56.62
4814;BME280;15375;48.540;9.268;2023-02-11T14:43:51;99038.97;;;9.26;56.05
4814;BME280;15375;48.540;9.268;2023-02-11T14:46:19;99041.84;;;9.10;56.68
4814;BME280;15375;48.540;9.268;2023-02-11T14:48:51;99040.13;;;8.98;57.48
4814;BME280;15375;48.540;9.268;2023-02-11T14:51:30;99050.81;;;9.11;56.96
4814;BME280;15375;48.540;9.268;2023-02-11T14:54:00;99046.34;;;8.99;57.57
4814;BME280;15375;48.540;9.268;2023-02-11T14:56:28;99035.44;;;8.99;57.26
4814;BME280;15375;48.540;9.268;2023-02-11T14:58:59;99047.91;;;9.00;57.51
4814;BME280;15375;48.540;9.268;2023-02-11T15:01:29;99054.19;;;9.04;57.02
4814;BME280;15375;48.540;9.268;2023-02-11T15:04:00;99058.56;;;9.09;57.44
4814;BME280;15375;48.540;9.268;2023-02-11T15:06:39;99048.84;;;8.85;56.71
4814;BME280;15375;48.540;9.268;2023-02-11T15:09:36;99053.44;;;8.58;57.83
4814;BME280;15375;48.540;9.268;2023-02-11T15:11:58;99055.00;;;8.37;58.57
4814;BME280;15375;48.540;9.268;2023-02-11T15:16:51;99060.94;;;8.23;59.36
4814;BME280;15375;48.540;9.268;2023-02-11T15:19:31;99075.47;;;8.30;59.39
4814;BME280;15375;48.540;9.268;2023-02-11T15:22:00;99042.97;;;8.18;60.00
4814;BME280;15375;48.540;9.268;2023-02-11T15:24:33;99072.69;;;8.27;59.82
4814;BME280;15375;48.540;9.268;2023-02-11T15:27:10;99075.03;;;8.28;60.66